Time;durP1;ratioP1;P1;durP2;ratioP2;P2;SDS_P1;SDS_P2;PMS_P1;PMS_P2;Temp;Humidity;BMP_temperature;BMP_pressure;BME280_temperature;BME280_humidity;BME280_pressure;Samples;Min_cycle;Max_cycle;Signal;HPM_P1;HPM_P2
2020/12/19 00:06:12;;;;;;;3.35;2.20;;;;;;;;;;4162133;34;20467;-59
2020/12/19 00:08:38;;;;;;;2.42;1.75;;;;;;;;;;4150529;34;20102;-62
2020/12/19 00:11:06;;;;;;;3.97;2.03;;;;;;;;;;4163598;34;20534;-60
2020/12/19 00:13:32;;;;;;;5.10;2.10;;;;;;;;;;4163498;34;20095;-60
2020/12/19 00:15:58;;;;;;;3.00;2.10;;;;;;;;;;4163567;34;20110;-60
2020/12/19 00:18:23;;;;;;;2.62;1.87;;;;;;;;;;4163947;34;20118;-60
2020/12/19 00:20:50;;;;;;;3.95;2.35;;;;;;;;;;4163391;34;20166;-59
2020/12/19 00:23:16;;;;;;;4.65;2.20;;;;;;;;;;4163471;34;20126;-60
2020/12/19 00:25:41;;;;;;;2.78;1.90;;;;;;;;;;4150775;34;20245;-61
2020/12/19 00:28:07;;;;;;;2.83;2.10;;;;;;;;;;4150946;34;20122;-60
2020/12/19 00:30:33;;;;;;;2.67;1.90;;;;;;;;;;4163454;34;20134;-60
2020/12/19 00:32:59;;;;;;;2.92;1.80;;;;;;;;;;4163597;34;20197;-61
2020/12/19 00:35:25;;;;;;;2.92;1.80;;;;;;;;;;4163472;34;20216;-60
2020/12/19 00:37:51;;;;;;;2.97;1.92;;;;;;;;;;4150789;34;20125;-60
2020/12/19 00:40:17;;;;;;;2.87;2.08;;;;;;;;;;4163515;34;20134;-61
2020/12/19 00:42:43;;;;;;;3.45;2.20;;;;;;;;;;4150556;34;20122;-61
2020/12/19 00:45:08;;;;;;;3.83;2.20;;;;;;;;;;4150575;34;20206;-61
2020/12/19 00:47:36;;;;;;;3.62;2.20;;;;;;;;;;4163708;34;20622;-61
2020/12/19 00:50:02;;;;;;;3.08;2.30;;;;;;;;;;4150483;34;20135;-61
2020/12/19 00:52:28;;;;;;;3.90;2.30;;;;;;;;;;4163295;34;20098;-62
2020/12/19 00:54:54;;;;;;;3.17;2.20;;;;;;;;;;4163164;34;20616;-62
2020/12/19 00:57:20;;;;;;;3.55;2.28;;;;;;;;;;4150512;34;20184;-61
2020/12/19 00:59:46;;;;;;;3.10;1.90;;;;;;;;;;4163398;34;20122;-62
2020/12/19 01:02:12;;;;;;;5.25;2.17;;;;;;;;;;4150604;34;20242;-61
2020/12/19 01:04:38;;;;;;;3.97;1.85;;;;;;;;;;4162733;34;20155;-62
2020/12/19 01:07:10;;;;;;;3.65;2.15;;;;;;;;;;4163282;34;20264;-62
2020/12/19 01:09:36;;;;;;;3.85;1.98;;;;;;;;;;4163004;34;20202;-62
2020/12/19 01:12:04;;;;;;;5.97;2.65;;;;;;;;;;4163114;34;20098;-62
2020/12/19 01:14:30;;;;;;;2.90;1.80;;;;;;;;;;4150432;34;20663;-61
2020/12/19 01:16:56;;;;;;;2.90;1.95;;;;;;;;;;4150483;34;20126;-62
2020/12/19 01:19:22;;;;;;;4.20;2.10;;;;;;;;;;4150519;34;20230;-61
2020/12/19 01:21:48;;;;;;;4.65;2.22;;;;;;;;;;4150345;34;20102;-62
2020/12/19 01:24:13;;;;;;;3.78;2.20;;;;;;;;;;4162737;34;20149;-62
2020/12/19 01:26:39;;;;;;;4.12;2.10;;;;;;;;;;4162891;34;20106;-62
2020/12/19 01:29:05;;;;;;;5.68;2.12;;;;;;;;;;4162753;34;20131;-62
2020/12/19 01:31:31;;;;;;;3.90;2.05;;;;;;;;;;4162939;34;20637;-62
2020/12/19 01:33:57;;;;;;;3.12;2.10;;;;;;;;;;4164893;34;20122;-62
2020/12/19 01:36:23;;;;;;;2.67;2.05;;;;;;;;;;4141197;34;20497;-62
2020/12/19 01:38:50;;;;;;;4.10;2.30;;;;;;;;;;4164846;34;20099;-62
2020/12/19 01:41:16;;;;;;;4.00;2.47;;;;;;;;;;4164892;34;20111;-62
2020/12/19 01:43:46;;;;;;;5.65;2.62;;;;;;;;;;4140928;34;20105;-62
2020/12/19 01:46:13;;;;;;;4.37;2.65;;;;;;;;;;4164916;34;20250;-62
2020/12/19 01:48:38;;;;;;;4.25;2.25;;;;;;;;;;4152169;34;20119;-62
2020/12/19 01:51:04;;;;;;;5.07;2.35;;;;;;;;;;4152230;34;20123;-62
2020/12/19 01:53:30;;;;;;;3.35;2.37;;;;;;;;;;4141007;34;20198;-62
2020/12/19 01:55:56;;;;;;;5.00;2.58;;;;;;;;;;4163398;34;20094;-62
2020/12/19 01:58:22;;;;;;;3.30;2.30;;;;;;;;;;4163554;34;20223;-62
2020/12/19 02:00:48;;;;;;;4.65;2.60;;;;;;;;;;4151972;34;20118;-62
2020/12/19 02:03:14;;;;;;;4.50;2.33;;;;;;;;;;4164704;34;20119;-61
2020/12/19 02:05:41;;;;;;;3.85;2.33;;;;;;;;;;4151801;34;20126;-62
2020/12/19 02:08:10;;;;;;;5.78;2.45;;;;;;;;;;4165041;34;20134;-62
2020/12/19 02:10:36;;;;;;;4.07;2.30;;;;;;;;;;4140789;34;20117;-62
2020/12/19 02:13:03;;;;;;;5.85;2.37;;;;;;;;;;4164694;34;20158;-62
2020/12/19 02:15:42;;;;;;;5.85;2.67;;;;;;;;;;4140722;34;20203;-62
2020/12/19 02:18:08;;;;;;;10.90;2.87;;;;;;;;;;4141246;34;20099;-62
2020/12/19 02:20:34;;;;;;;4.37;2.53;;;;;;;;;;4152000;34;20118;-62
2020/12/19 02:23:01;;;;;;;6.00;2.53;;;;;;;;;;4140992;34;20174;-62
2020/12/19 02:25:33;;;;;;;3.05;2.00;;;;;;;;;;4151865;34;20238;-62
2020/12/19 02:28:01;;;;;;;4.87;2.40;;;;;;;;;;4152184;34;20131;-62
2020/12/19 02:30:27;;;;;;;2.97;2.10;;;;;;;;;;4152061;34;20123;-62
2020/12/19 02:32:52;;;;;;;3.72;2.28;;;;;;;;;;4164939;34;20276;-62
2020/12/19 02:35:18;;;;;;;4.68;2.50;;;;;;;;;;4151904;34;20601;-61
2020/12/19 02:37:44;;;;;;;3.45;2.10;;;;;;;;;;4164675;34;20119;-62
2020/12/19 02:40:10;;;;;;;3.72;2.20;;;;;;;;;;4152053;34;20193;-61
2020/12/19 02:42:36;;;;;;;4.12;2.70;;;;;;;;;;4151647;34;20133;-61
2020/12/19 02:45:02;;;;;;;5.22;2.58;;;;;;;;;;4150818;34;20241;-61
2020/12/19 02:47:28;;;;;;;4.43;2.35;;;;;;;;;;4152030;34;20126;-62
2020/12/19 02:49:54;;;;;;;5.43;2.50;;;;;;;;;;4151564;34;20546;-62
2020/12/19 02:52:20;;;;;;;5.43;2.70;;;;;;;;;;4164394;34;20155;-62
2020/12/19 02:54:46;;;;;;;4.53;2.70;;;;;;;;;;4164318;34;20552;-62
2020/12/19 02:57:12;;;;;;;5.55;2.62;;;;;;;;;;4164545;34;20107;-62
2020/12/19 02:59:38;;;;;;;3.53;2.70;;;;;;;;;;4164290;34;20099;-61
2020/12/19 03:02:03;;;;;;;5.50;2.85;;;;;;;;;;4164300;34;20105;-62
2020/12/19 03:04:29;;;;;;;3.17;2.30;;;;;;;;;;4163986;34;20140;-62
2020/12/19 03:06:55;;;;;;;3.80;2.42;;;;;;;;;;4151460;34;20643;-62
2020/12/19 03:09:24;;;;;;;5.20;2.85;;;;;;;;;;4164309;34;20123;-60
2020/12/19 03:11:50;;;;;;;6.53;3.20;;;;;;;;;;4164394;34;20610;-60
2020/12/19 03:14:16;;;;;;;4.80;2.72;;;;;;;;;;4164081;34;20299;-61
2020/12/19 03:16:42;;;;;;;4.53;2.60;;;;;;;;;;4164071;34;20145;-61
2020/12/19 03:19:08;;;;;;;5.15;3.00;;;;;;;;;;4151385;34;20588;-61
2020/12/19 03:21:34;;;;;;;5.55;2.87;;;;;;;;;;4164388;34;20167;-60
2020/12/19 03:23:59;;;;;;;5.87;2.70;;;;;;;;;;4151288;34;20149;-61
2020/12/19 03:26:25;;;;;;;4.78;2.83;;;;;;;;;;4164206;34;20118;-61
2020/12/19 03:28:51;;;;;;;5.87;2.97;;;;;;;;;;4151239;34;20612;-60
2020/12/19 03:31:17;;;;;;;6.90;3.47;;;;;;;;;;4151293;34;20559;-61
2020/12/19 03:33:43;;;;;;;8.00;3.75;;;;;;;;;;4163872;34;20126;-61
2020/12/19 03:36:09;;;;;;;6.57;3.70;;;;;;;;;;4151170;34;20487;-61
2020/12/19 03:38:35;;;;;;;6.25;3.20;;;;;;;;;;4163882;34;20193;-61
2020/12/19 03:41:01;;;;;;;5.93;3.30;;;;;;;;;;4139964;34;20141;-62
2020/12/19 03:43:27;;;;;;;4.07;3.08;;;;;;;;;;4151136;34;20285;-64
2020/12/19 03:45:52;;;;;;;8.65;4.12;;;;;;;;;;4163779;34;20091;-63
2020/12/19 03:48:18;;;;;;;8.65;5.78;;;;;;;;;;4139973;34;20207;-62
2020/12/19 03:50:44;;;;;;;10.40;6.32;;;;;;;;;;4163777;34;20507;-61
2020/12/19 03:53:10;;;;;;;10.40;6.20;;;;;;;;;;4151206;34;20610;-62
2020/12/19 03:55:36;;;;;;;11.77;9.40;;;;;;;;;;4163378;34;20143;-62
2020/12/19 03:58:02;;;;;;;13.02;8.45;;;;;;;;;;4163848;34;20154;-64
2020/12/19 04:00:28;;;;;;;11.75;6.75;;;;;;;;;;4151072;34;20639;-64
2020/12/19 04:02:54;;;;;;;8.13;5.37;;;;;;;;;;4150988;34;20178;-64
2020/12/19 04:05:20;;;;;;;5.87;4.00;;;;;;;;;;4150873;34;20119;-65
2020/12/19 04:07:45;;;;;;;8.25;4.28;;;;;;;;;;4152669;34;20137;-66
2020/12/19 04:10:12;;;;;;;10.15;4.78;;;;;;;;;;4153526;34;20099;-64
2020/12/19 04:12:38;;;;;;;8.63;4.07;;;;;;;;;;4164731;34;20105;-64
2020/12/19 04:15:07;;;;;;;9.18;4.90;;;;;;;;;;4177398;34;20435;-64
2020/12/19 04:17:33;;;;;;;10.60;5.32;;;;;;;;;;4177309;34;20221;-65
2020/12/19 04:19:59;;;;;;;6.95;4.20;;;;;;;;;;4164469;34;20109;-65
2020/12/19 04:22:25;;;;;;;8.43;3.97;;;;;;;;;;4164752;34;20125;-66
2020/12/19 04:24:51;;;;;;;5.60;3.53;;;;;;;;;;4138730;34;20233;-62
2020/12/19 04:27:17;;;;;;;7.12;3.95;;;;;;;;;;4162815;34;20106;-66
2020/12/19 04:29:43;;;;;;;8.82;4.07;;;;;;;;;;4138809;34;20110;-66
2020/12/19 04:32:08;;;;;;;6.15;3.62;;;;;;;;;;4138984;34;20466;-63
2020/12/19 04:34:34;;;;;;;5.85;3.55;;;;;;;;;;4161681;34;20145;-65
2020/12/19 04:37:00;;;;;;;6.60;4.43;;;;;;;;;;4149059;34;20214;-67
2020/12/19 04:39:26;;;;;;;11.00;5.55;;;;;;;;;;4160289;34;20111;-67
2020/12/19 04:41:52;;;;;;;18.12;8.05;;;;;;;;;;4152519;34;20122;-64
2020/12/19 04:44:19;;;;;;;16.45;7.93;;;;;;;;;;4148389;34;20130;-65
2020/12/19 04:46:45;;;;;;;11.20;5.95;;;;;;;;;;4113531;34;20158;-62
2020/12/19 04:49:11;;;;;;;19.70;9.38;;;;;;;;;;4150184;34;20600;-62
2020/12/19 04:51:37;;;;;;;26.73;13.35;;;;;;;;;;4149797;34;20103;-66
2020/12/19 04:54:07;;;;;;;35.25;17.50;;;;;;;;;;4137190;34;20270;-66
2020/12/19 04:56:33;;;;;;;38.55;19.55;;;;;;;;;;4137240;34;20530;-63
2020/12/19 04:59:00;;;;;;;42.00;21.00;;;;;;;;;;4136398;34;20111;-65
2020/12/19 05:01:26;;;;;;;44.97;23.33;;;;;;;;;;4136805;34;21358;-63
2020/12/19 05:03:52;;;;;;;42.85;20.08;;;;;;;;;;4162705;34;20483;-64
2020/12/19 05:06:28;;;;;;;36.60;18.95;;;;;;;;;;4149753;34;20123;-63
2020/12/19 05:08:55;;;;;;;38.88;21.87;;;;;;;;;;4163519;34;20142;-63
2020/12/19 05:11:23;;;;;;;42.83;24.55;;;;;;;;;;4164704;34;20095;-60
2020/12/19 05:13:49;;;;;;;48.55;27.85;;;;;;;;;;4152084;34;20468;-63
2020/12/19 05:16:15;;;;;;;44.03;23.87;;;;;;;;;;4165099;34;20155;-64
2020/12/19 05:18:42;;;;;;;35.15;19.67;;;;;;;;;;4152255;34;20130;-63
2020/12/19 05:21:09;;;;;;;21.80;12.75;;;;;;;;;;4152402;34;20546;-65
2020/12/19 05:23:35;;;;;;;25.05;14.80;;;;;;;;;;4152438;34;20103;-65
2020/12/19 05:26:05;;;;;;;29.40;15.48;;;;;;;;;;4152101;34;20218;-65
2020/12/19 05:28:35;;;;;;;14.93;9.18;;;;;;;;;;4152454;34;20117;-67
2020/12/19 05:31:01;;;;;;;19.75;12.43;;;;;;;;;;4152529;34;20099;-66
2020/12/19 05:33:38;;;;;;;16.45;11.25;;;;;;;;;;4164949;34;20516;-65
2020/12/19 05:36:04;;;;;;;15.68;10.50;;;;;;;;;;4152438;34;20471;-65
2020/12/19 05:38:30;;;;;;;23.95;17.15;;;;;;;;;;4164908;34;20154;-66
2020/12/19 05:40:59;;;;;;;33.88;22.58;;;;;;;;;;4151427;34;20112;-67
2020/12/19 05:43:25;;;;;;;34.17;23.38;;;;;;;;;;4152720;34;20131;-66
2020/12/19 05:45:51;;;;;;;26.45;18.05;;;;;;;;;;4164820;34;20639;-66
2020/12/19 05:48:17;;;;;;;21.62;15.05;;;;;;;;;;4164879;34;20110;-66
2020/12/19 05:50:43;;;;;;;13.30;10.30;;;;;;;;;;4152131;34;20133;-66
2020/12/19 05:53:09;;;;;;;9.68;7.12;;;;;;;;;;4152313;34;20106;-65
2020/12/19 05:55:36;;;;;;;8.27;5.43;;;;;;;;;;4164641;34;20119;-66
2020/12/19 05:58:05;;;;;;;7.57;5.45;;;;;;;;;;4152207;34;20135;-66
2020/12/19 06:00:32;;;;;;;9.40;6.00;;;;;;;;;;4141084;34;20106;-65
2020/12/19 06:02:59;;;;;;;8.82;6.03;;;;;;;;;;4152069;34;20130;-66
2020/12/19 06:05:25;;;;;;;9.30;7.37;;;;;;;;;;4151681;34;20440;-64
2020/12/19 06:07:51;;;;;;;13.10;10.32;;;;;;;;;;4151999;34;20194;-65
2020/12/19 06:10:17;;;;;;;17.23;11.57;;;;;;;;;;4164553;34;20115;-62
2020/12/19 06:12:56;;;;;;;13.70;10.43;;;;;;;;;;4152353;34;20137;-63
2020/12/19 06:15:46;;;;;;;14.45;11.10;;;;;;;;;;4164491;34;20102;-64
2020/12/19 06:18:37;;;;;;;17.77;9.65;;;;;;;;;;4164471;34;20099;-61
2020/12/19 06:21:07;;;;;;;10.05;6.60;;;;;;;;;;4151954;34;20130;-68
2020/12/19 06:23:37;;;;;;;8.27;5.55;;;;;;;;;;4140638;34;20123;-67
2020/12/19 06:26:06;;;;;;;8.23;5.50;;;;;;;;;;4151880;34;20443;-64
2020/12/19 06:28:41;;;;;;;7.62;5.18;;;;;;;;;;4151928;34;20109;-65
2020/12/19 06:31:21;;;;;;;9.07;5.53;;;;;;;;;;4149627;34;20151;-65
2020/12/19 06:33:53;;;;;;;7.50;5.57;;;;;;;;;;4160737;34;20122;-66
2020/12/19 06:36:20;;;;;;;8.27;5.45;;;;;;;;;;4138323;34;20114;-66
2020/12/19 06:39:05;;;;;;;7.32;5.40;;;;;;;;;;4138213;34;20117;-66
2020/12/19 06:41:43;;;;;;;8.93;5.15;;;;;;;;;;4139190;34;20129;-66
2020/12/19 06:44:23;;;;;;;6.32;4.22;;;;;;;;;;4138527;34;20122;-66
2020/12/19 06:46:49;;;;;;;7.00;4.62;;;;;;;;;;4141354;34;20110;-66
2020/12/19 06:49:32;;;;;;;6.78;4.43;;;;;;;;;;4147716;34;20133;-66
2020/12/19 06:52:11;;;;;;;7.47;5.65;;;;;;;;;;4139794;34;20340;-65
2020/12/19 06:54:41;;;;;;;8.27;6.18;;;;;;;;;;4151276;34;20122;-65
2020/12/19 06:57:26;;;;;;;8.82;5.80;;;;;;;;;;4163983;34;20134;-65
2020/12/19 06:59:53;;;;;;;14.00;5.30;;;;;;;;;;4150993;34;20187;-64
2020/12/19 07:02:20;;;;;;;7.90;4.85;;;;;;;;;;4164195;34;20099;-63
2020/12/19 07:04:46;;;;;;;9.70;5.50;;;;;;;;;;4139873;34;20202;-64
2020/12/19 07:07:14;;;;;;;9.57;5.75;;;;;;;;;;4151278;34;20115;-63
2020/12/19 07:09:40;;;;;;;13.10;5.37;;;;;;;;;;4163486;34;20111;-63
2020/12/19 07:12:14;;;;;;;8.25;4.28;;;;;;;;;;4151457;34;20086;-63
2020/12/19 07:14:41;;;;;;;6.15;4.00;;;;;;;;;;4151409;34;20118;-64
2020/12/19 07:17:17;;;;;;;7.32;4.15;;;;;;;;;;4151548;34;20110;-63
2020/12/19 07:19:43;;;;;;;9.15;4.25;;;;;;;;;;4151237;34;20523;-63
2020/12/19 07:22:09;;;;;;;6.25;4.53;;;;;;;;;;4164010;34;20118;-64
2020/12/19 07:24:35;;;;;;;8.32;4.60;;;;;;;;;;4163683;34;20133;-64
2020/12/19 07:27:01;;;;;;;9.18;4.53;;;;;;;;;;4151420;34;20149;-63
2020/12/19 07:29:27;;;;;;;11.20;5.35;;;;;;;;;;4139634;34;20467;-64
2020/12/19 07:31:55;;;;;;;9.77;5.28;;;;;;;;;;4140067;34;20103;-62
2020/12/19 07:34:21;;;;;;;10.00;6.32;;;;;;;;;;4139683;34;20110;-63
2020/12/19 07:36:47;;;;;;;10.45;7.43;;;;;;;;;;4151149;34;20535;-64
2020/12/19 07:39:14;;;;;;;10.98;7.32;;;;;;;;;;4151262;34;20101;-65
2020/12/19 07:41:43;;;;;;;12.15;7.37;;;;;;;;;;4139660;34;20122;-64
2020/12/19 07:44:12;;;;;;;11.70;6.97;;;;;;;;;;4151130;34;20114;-64
2020/12/19 07:46:56;;;;;;;11.63;6.60;;;;;;;;;;4150966;34;20125;-66
2020/12/19 07:49:32;;;;;;;9.02;5.90;;;;;;;;;;4151128;34;20103;-63
2020/12/19 07:52:10;;;;;;;9.35;6.10;;;;;;;;;;4150555;34;20271;-63
2020/12/19 07:54:36;;;;;;;10.95;5.43;;;;;;;;;;4150520;34;20290;-63
2020/12/19 07:57:02;;;;;;;8.80;5.45;;;;;;;;;;4138542;34;20118;-65
2020/12/19 07:59:28;;;;;;;6.90;4.90;;;;;;;;;;4149344;34;20119;-66
2020/12/19 08:02:03;;;;;;;10.05;6.37;;;;;;;;;;4149894;34;20125;-61
2020/12/19 08:04:31;;;;;;;7.32;5.05;;;;;;;;;;4149223;34;20138;-62
2020/12/19 08:06:58;;;;;;;8.85;5.25;;;;;;;;;;4149604;34;20218;-61
2020/12/19 08:09:23;;;;;;;8.73;5.85;;;;;;;;;;4161909;34;20214;-63
2020/12/19 08:11:50;;;;;;;8.23;5.82;;;;;;;;;;4150683;34;20543;-60
2020/12/19 08:14:20;;;;;;;10.15;5.78;;;;;;;;;;4150941;34;20112;-62
2020/12/19 08:16:47;;;;;;;9.40;5.97;;;;;;;;;;4139725;34;20543;-63
2020/12/19 08:19:17;;;;;;;8.07;5.10;;;;;;;;;;4139519;34;20653;-63
2020/12/19 08:21:43;;;;;;;9.45;5.55;;;;;;;;;;4150424;34;20118;-65
2020/12/19 08:24:09;;;;;;;6.37;4.72;;;;;;;;;;4139176;34;20118;-63
2020/12/19 08:26:35;;;;;;;8.23;4.32;;;;;;;;;;4139667;34;20138;-61
2020/12/19 08:29:08;;;;;;;6.18;3.67;;;;;;;;;;4151097;34;20120;-60
2020/12/19 08:31:35;;;;;;;7.55;4.45;;;;;;;;;;4150901;34;20214;-60
2020/12/19 08:34:10;;;;;;;5.60;3.80;;;;;;;;;;4150820;34;20178;-59
2020/12/19 08:36:36;;;;;;;7.12;4.40;;;;;;;;;;4139636;34;20118;-64
2020/12/19 08:39:31;;;;;;;5.05;3.70;;;;;;;;;;4150640;34;20268;-63
2020/12/19 08:41:57;;;;;;;6.72;3.75;;;;;;;;;;4153387;34;20203;-61
2020/12/19 08:44:24;;;;;;;5.68;3.80;;;;;;;;;;4160941;34;20127;-62
2020/12/19 08:47:03;;;;;;;4.87;3.67;;;;;;;;;;4150724;34;20099;-62
2020/12/19 08:49:29;;;;;;;5.30;3.67;;;;;;;;;;4161814;34;20206;-63
2020/12/19 08:51:55;;;;;;;4.70;3.37;;;;;;;;;;4139522;34;20121;-61
2020/12/19 08:54:22;;;;;;;7.80;4.07;;;;;;;;;;4150638;34;20143;-63
2020/12/19 08:56:50;;;;;;;6.28;4.10;;;;;;;;;;4162765;34;20111;-62
2020/12/19 08:59:24;;;;;;;6.10;4.00;;;;;;;;;;4145526;34;20515;-62
2020/12/19 09:01:53;;;;;;;8.02;4.82;;;;;;;;;;4139168;34;20515;-64
2020/12/19 09:04:19;;;;;;;7.80;4.90;;;;;;;;;;4144856;34;20201;-63
2020/12/19 09:06:46;;;;;;;8.15;5.45;;;;;;;;;;4150256;34;20114;-62
2020/12/19 09:09:33;;;;;;;8.32;5.18;;;;;;;;;;4149741;34;20209;-64
2020/12/19 09:12:09;;;;;;;8.27;5.05;;;;;;;;;;4139194;34;20110;-65
2020/12/19 09:14:35;;;;;;;;;;;;;;;;;;4163048;34;20138;-64
2020/12/19 09:17:02;;;;;;;8.77;4.70;;;;;;;;;;4150485;34;19990;-64
2020/12/19 09:19:28;;;;;;;6.12;4.15;;;;;;;;;;4149966;34;20134;-63
2020/12/19 09:22:03;;;;;;;7.93;4.45;;;;;;;;;;4139421;34;20094;-64
2020/12/19 09:24:29;;;;;;;7.82;5.20;;;;;;;;;;4150244;34;20541;-64
2020/12/19 09:26:55;;;;;;;12.07;5.53;;;;;;;;;;4137781;34;20111;-62
2020/12/19 09:29:21;;;;;;;7.87;5.00;;;;;;;;;;4138439;34;20505;-66
2020/12/19 09:31:47;;;;;;;8.90;5.03;;;;;;;;;;4162979;34;20095;-60
2020/12/19 09:34:12;;;;;;;9.35;5.45;;;;;;;;;;4138675;34;20508;-61
2020/12/19 09:36:38;;;;;;;11.93;5.72;;;;;;;;;;4161385;34;20483;-62
2020/12/19 09:39:04;;;;;;;9.35;5.37;;;;;;;;;;4162276;34;20130;-61
2020/12/19 09:41:31;;;;;;;10.93;5.57;;;;;;;;;;4150073;34;20186;-61
2020/12/19 09:43:57;;;;;;;8.63;5.20;;;;;;;;;;4149992;34;20472;-61
2020/12/19 09:46:23;;;;;;;7.32;5.20;;;;;;;;;;4150007;34;20142;-60
2020/12/19 09:48:49;;;;;;;9.70;5.28;;;;;;;;;;4149260;34;20107;-61
2020/12/19 09:51:15;;;;;;;8.20;5.25;;;;;;;;;;4149994;34;20115;-62
2020/12/19 09:53:41;;;;;;;9.70;4.75;;;;;;;;;;4138458;34;20237;-62
2020/12/19 09:56:07;;;;;;;7.60;5.03;;;;;;;;;;4164792;34;20526;-62
2020/12/19 09:58:37;;;;;;;8.77;5.37;;;;;;;;;;4151633;34;20099;-63
2020/12/19 10:01:12;;;;;;;9.90;5.87;;;;;;;;;;4148862;34;20194;-62
2020/12/19 10:03:42;;;;;;;12.23;6.70;;;;;;;;;;4149901;34;20543;-63
2020/12/19 10:06:08;;;;;;;14.27;8.07;;;;;;;;;;4139849;34;20122;-63
2020/12/19 10:08:34;;;;;;;12.80;9.10;;;;;;;;;;4140267;34;20106;-63
2020/12/19 10:11:01;;;;;;;12.55;8.32;;;;;;;;;;4164299;34;20557;-63
2020/12/19 10:13:27;;;;;;;10.55;7.50;;;;;;;;;;4151469;34;20174;-62
2020/12/19 10:15:53;;;;;;;10.77;6.37;;;;;;;;;;4151554;34;20103;-59
2020/12/19 10:18:20;;;;;;;10.10;5.82;;;;;;;;;;4164243;34;20143;-62
2020/12/19 10:20:46;;;;;;;7.10;4.95;;;;;;;;;;4140215;34;20091;-63
2020/12/19 10:23:11;;;;;;;6.57;4.18;;;;;;;;;;4164220;34;20126;-63
2020/12/19 10:25:37;;;;;;;6.90;4.65;;;;;;;;;;4164348;34;20146;-60
2020/12/19 10:28:03;;;;;;;6.62;4.25;;;;;;;;;;4151493;34;20111;-64
2020/12/19 10:30:29;;;;;;;9.63;5.28;;;;;;;;;;4152014;34;20157;-63
2020/12/19 10:32:55;;;;;;;7.28;4.28;;;;;;;;;;4151653;34;20130;-61
2020/12/19 10:35:21;;;;;;;6.30;4.45;;;;;;;;;;4151930;34;20190;-62
2020/12/19 10:37:47;;;;;;;6.90;4.72;;;;;;;;;;4151138;34;20110;-60
2020/12/19 10:40:13;;;;;;;9.68;4.82;;;;;;;;;;4150545;34;20114;-63
2020/12/19 10:42:39;;;;;;;8.23;5.45;;;;;;;;;;4150730;34;20113;-63
2020/12/19 10:45:05;;;;;;;14.40;5.82;;;;;;;;;;4150740;34;20199;-62
2020/12/19 10:47:31;;;;;;;10.60;8.13;;;;;;;;;;4150962;34;20126;-61
2020/12/19 10:49:57;;;;;;;10.85;7.70;;;;;;;;;;4163459;34;20161;-65
2020/12/19 10:52:23;;;;;;;6.72;4.43;;;;;;;;;;4149984;34;20100;-62
2020/12/19 10:54:49;;;;;;;7.70;5.43;;;;;;;;;;4147456;34;20101;-64
2020/12/19 10:57:14;;;;;;;8.05;4.60;;;;;;;;;;4139307;34;20138;-63
2020/12/19 10:59:40;;;;;;;9.38;4.80;;;;;;;;;;4150907;34;20471;-63
2020/12/19 11:02:06;;;;;;;5.78;4.25;;;;;;;;;;4140357;34;20453;-62
2020/12/19 11:04:32;;;;;;;8.73;5.25;;;;;;;;;;4147576;34;20479;-61
2020/12/19 11:06:58;;;;;;;7.32;4.68;;;;;;;;;;4146956;34;20114;-60
2020/12/19 11:09:24;;;;;;;9.20;5.95;;;;;;;;;;4146937;34;20115;-62
2020/12/19 11:11:53;;;;;;;7.53;5.22;;;;;;;;;;4124655;34;20129;-63
2020/12/19 11:14:20;;;;;;;7.22;4.90;;;;;;;;;;4124967;34;20127;-63
2020/12/19 11:16:46;;;;;;;6.03;4.50;;;;;;;;;;4124651;34;20103;-62
2020/12/19 11:19:13;;;;;;;7.70;4.47;;;;;;;;;;4148038;34;20197;-60
2020/12/19 11:21:45;;;;;;;7.12;4.65;;;;;;;;;;4126783;34;20193;-63
2020/12/19 11:24:12;;;;;;;8.38;6.12;;;;;;;;;;4150334;34;20215;-62
2020/12/19 11:26:40;;;;;;;9.43;5.62;;;;;;;;;;4148829;34;20122;-60
2020/12/19 11:29:06;;;;;;;7.50;5.93;;;;;;;;;;4149296;34;20149;-60
2020/12/19 11:31:33;;;;;;;8.05;5.70;;;;;;;;;;4150386;34;20117;-61
2020/12/19 11:33:59;;;;;;;10.00;6.70;;;;;;;;;;4148987;34;20091;-63
2020/12/19 11:36:24;;;;;;;9.80;7.65;;;;;;;;;;4138073;34;20121;-61
2020/12/19 11:38:50;;;;;;;10.73;7.28;;;;;;;;;;4149134;34;20524;-60
2020/12/19 11:41:23;;;;;;;8.75;5.53;;;;;;;;;;4149305;34;20134;-64
2020/12/19 11:43:49;;;;;;;9.90;5.80;;;;;;;;;;4143840;34;20242;-60
2020/12/19 11:46:16;;;;;;;10.00;6.32;;;;;;;;;;4155516;34;20510;-61
2020/12/19 11:48:42;;;;;;;8.95;6.22;;;;;;;;;;4131531;34;20111;-61
2020/12/19 11:51:08;;;;;;;9.07;6.35;;;;;;;;;;4135408;34;20115;-60
2020/12/19 11:53:34;;;;;;;9.85;6.75;;;;;;;;;;4141584;34;20448;-61
2020/12/19 11:56:03;;;;;;;13.27;9.38;;;;;;;;;;4135395;34;20111;-61
2020/12/19 11:58:29;;;;;;;17.42;14.00;;;;;;;;;;4112735;34;20694;-62
2020/12/19 12:00:55;;;;;;;21.62;18.45;;;;;;;;;;4135166;34;20119;-61
2020/12/19 12:03:21;;;;;;;19.75;16.42;;;;;;;;;;4146025;34;20256;-61
2020/12/19 12:05:47;;;;;;;19.48;15.48;;;;;;;;;;4123010;34;20111;-61
2020/12/19 12:08:13;;;;;;;14.80;10.00;;;;;;;;;;4135148;34;20130;-61
2020/12/19 12:10:39;;;;;;;10.20;7.80;;;;;;;;;;4135310;34;20115;-60
2020/12/19 12:13:05;;;;;;;13.77;10.18;;;;;;;;;;4136218;34;20104;-61
2020/12/19 12:15:31;;;;;;;19.02;13.90;;;;;;;;;;4147859;34;20110;-63
2020/12/19 12:17:57;;;;;;;21.02;17.52;;;;;;;;;;4148246;34;20138;-62
2020/12/19 12:20:24;;;;;;;24.77;17.55;;;;;;;;;;4136361;34;20113;-61
2020/12/19 12:22:50;;;;;;;27.30;15.90;;;;;;;;;;4136703;34;20108;-64
2020/12/19 12:25:16;;;;;;;35.00;17.27;;;;;;;;;;4140959;34;20146;-60
2020/12/19 12:27:42;;;;;;;24.98;15.73;;;;;;;;;;4149665;34;20106;-61
2020/12/19 12:30:08;;;;;;;17.90;13.20;;;;;;;;;;4137039;34;20625;-62
2020/12/19 12:32:34;;;;;;;19.70;14.00;;;;;;;;;;4149541;34;20103;-58
2020/12/19 12:35:00;;;;;;;20.00;12.77;;;;;;;;;;4148141;34;20142;-67
2020/12/19 12:37:26;;;;;;;17.62;11.52;;;;;;;;;;4147702;34;20312;-59
2020/12/19 12:39:53;;;;;;;28.60;16.42;;;;;;;;;;4146008;34;20541;-58
2020/12/19 12:42:21;;;;;;;33.35;18.05;;;;;;;;;;4147366;34;20109;-58
2020/12/19 12:44:47;;;;;;;31.55;20.00;;;;;;;;;;4147702;34;20134;-58
2020/12/19 12:47:14;;;;;;;22.67;13.68;;;;;;;;;;4145936;34;20091;-59
2020/12/19 12:49:40;;;;;;;18.85;13.23;;;;;;;;;;4143692;34;20476;-60
2020/12/19 12:52:06;;;;;;;19.42;12.80;;;;;;;;;;4147553;34;20217;-60
2020/12/19 12:54:32;;;;;;;17.85;12.15;;;;;;;;;;4146439;34;20118;-59
2020/12/19 12:56:58;;;;;;;23.10;14.35;;;;;;;;;;4147336;34;20137;-60
2020/12/19 12:59:24;;;;;;;24.33;14.10;;;;;;;;;;4146799;34;20531;-60
2020/12/19 13:01:49;;;;;;;22.52;16.58;;;;;;;;;;4147089;34;20526;-62
2020/12/19 13:04:15;;;;;;;27.92;16.42;;;;;;;;;;4148269;34;20118;-66
2020/12/19 13:06:42;;;;;;;20.62;15.52;;;;;;;;;;4150101;34;20122;-64
2020/12/19 13:09:08;;;;;;;23.00;15.85;;;;;;;;;;4150197;34;20134;-59
2020/12/19 13:11:40;;;;;;;23.52;15.75;;;;;;;;;;4149731;34;20103;-66
2020/12/19 13:14:06;;;;;;;30.35;18.70;;;;;;;;;;4150009;34;20195;-63
2020/12/19 13:16:33;;;;;;;27.83;19.77;;;;;;;;;;4150344;34;20519;-66
2020/12/19 13:18:59;;;;;;;27.40;21.00;;;;;;;;;;4150217;34;20131;-66
2020/12/19 13:21:26;;;;;;;32.30;24.55;;;;;;;;;;4162820;34;20096;-65
2020/12/19 13:23:52;;;;;;;29.08;20.92;;;;;;;;;;4149914;34;20130;-65
2020/12/19 13:26:18;;;;;;;28.33;18.62;;;;;;;;;;4150207;34;20134;-66
2020/12/19 13:28:43;;;;;;;43.72;25.23;;;;;;;;;;4150916;34;20531;-66
2020/12/19 13:31:09;;;;;;;43.17;25.55;;;;;;;;;;4152009;34;20130;-67
2020/12/19 13:33:36;;;;;;;65.25;40.50;;;;;;;;;;4151994;34;20138;-67
2020/12/19 13:36:08;;;;;;;69.30;40.00;;;;;;;;;;4152366;34;20551;-68
2020/12/19 13:38:34;;;;;;;77.57;44.65;;;;;;;;;;4151977;34;20523;-66
2020/12/19 13:41:00;;;;;;;77.78;46.80;;;;;;;;;;4163230;34;20504;-63
2020/12/19 13:43:26;;;;;;;79.65;49.80;;;;;;;;;;4151482;34;20118;-64
2020/12/19 13:46:02;;;;;;;92.12;58.05;;;;;;;;;;4152048;34;20099;-65
2020/12/19 13:48:29;;;;;;;82.45;53.40;;;;;;;;;;4164473;34;20111;-67
2020/12/19 13:50:55;;;;;;;76.97;47.88;;;;;;;;;;4151656;34;20114;-65
2020/12/19 13:53:21;;;;;;;72.40;45.50;;;;;;;;;;4163714;34;20134;-64
2020/12/19 13:55:47;;;;;;;54.83;38.47;;;;;;;;;;4164520;34;20122;-64
2020/12/19 13:58:13;;;;;;;45.00;29.63;;;;;;;;;;4151861;34;20107;-61
2020/12/19 14:00:39;;;;;;;35.05;26.02;;;;;;;;;;4151723;34;20122;-64
2020/12/19 14:03:04;;;;;;;34.15;24.33;;;;;;;;;;4151735;34;20450;-63
2020/12/19 14:05:31;;;;;;;36.10;25.85;;;;;;;;;;4149490;34;20124;-63
2020/12/19 14:07:57;;;;;;;40.17;27.77;;;;;;;;;;4150910;34;20548;-64
2020/12/19 14:10:23;;;;;;;34.33;25.40;;;;;;;;;;4149357;34;20281;-64
2020/12/19 14:12:49;;;;;;;32.08;24.12;;;;;;;;;;4149566;34;20516;-63
2020/12/19 14:15:15;;;;;;;33.95;25.00;;;;;;;;;;4136735;34;20549;-68
2020/12/19 14:17:41;;;;;;;32.53;26.75;;;;;;;;;;4147640;34;20120;-62
2020/12/19 14:20:07;;;;;;;38.58;29.95;;;;;;;;;;4148930;34;20111;-63
2020/12/19 14:22:35;;;;;;;34.75;27.58;;;;;;;;;;4149086;34;20121;-62
2020/12/19 14:25:01;;;;;;;35.05;27.02;;;;;;;;;;4147444;34;20130;-62
2020/12/19 14:27:27;;;;;;;42.47;37.90;;;;;;;;;;4147757;34;20131;-65
2020/12/19 14:29:53;;;;;;;52.42;45.25;;;;;;;;;;4148433;34;20134;-63
2020/12/19 14:32:19;;;;;;;55.67;49.45;;;;;;;;;;4150912;34;20119;-62
2020/12/19 14:34:45;;;;;;;57.13;44.83;;;;;;;;;;4138225;34;20127;-62
2020/12/19 14:37:11;;;;;;;49.72;43.53;;;;;;;;;;4149536;34;20210;-63
2020/12/19 14:39:37;;;;;;;65.87;45.58;;;;;;;;;;4149346;34;20103;-63
2020/12/19 14:42:03;;;;;;;66.37;48.20;;;;;;;;;;4148504;34;20111;-62